Terminal Aerodrome Forecast
Issued by NWS

Home | Current Version | Previous Version | Text Only | Print | Product List | Glossary On
Versions: 1 2 3 4 5 6 7 8 9 10 11 12 13 14
000
FTAK31 PAJN 241100
TAFAWG
TAF
PAWG 241128Z 2412/2512 00000KT P6SM BKN025 OVC045
     FM241900 34005KT P6SM VCSH FEW030 OVC050
     FM250200 VRB05KT P6SM FEW020 OVC035
     FM250800 VRB03KT 6SM -RA BR SCT020 OVC030
      AMD LTD TO CLD VIS AND WIND 2412/2415=

USA.gov is the U.S. government's official web portal to all federal, state and local government web resources and services.